sensor_id;sensor_type;location;lat;lon;timestamp;temperature;humidity
921;DHT22;447;51.332;6.778;2022-09-19T00:01:46;15.10;93.80
921;DHT22;447;51.332;6.778;2022-09-19T00:04:24;15.00;93.80
921;DHT22;447;51.332;6.778;2022-09-19T00:06:51;15.00;93.80
921;DHT22;447;51.332;6.778;2022-09-19T00:09:25;15.00;93.80
921;DHT22;447;51.332;6.778;2022-09-19T00:11:52;15.00;93.80
921;DHT22;447;51.332;6.778;2022-09-19T00:14:22;15.00;93.80
921;DHT22;447;51.332;6.778;2022-09-19T00:16:53;15.00;93.80
921;DHT22;447;51.332;6.778;2022-09-19T00:19:20;15.00;93.80
921;DHT22;447;51.332;6.778;2022-09-19T00:21:47;15.00;93.80
921;DHT22;447;51.332;6.778;2022-09-19T00:24:17;15.00;93.80
921;DHT22;447;51.332;6.778;2022-09-19T00:27:03;15.00;93.80
921;DHT22;447;51.332;6.778;2022-09-19T00:29:33;15.00;93.80
921;DHT22;447;51.332;6.778;2022-09-19T00:32:00;15.00;93.80
921;DHT22;447;51.332;6.778;2022-09-19T00:34:27;15.00;93.80
921;DHT22;447;51.332;6.778;2022-09-19T00:36:54;15.00;93.80
921;DHT22;447;51.332;6.778;2022-09-19T00:39:23;15.00;93.80
921;DHT22;447;51.332;6.778;2022-09-19T00:41:49;14.90;93.80
921;DHT22;447;51.332;6.778;2022-09-19T00:49:37;14.90;93.80
921;DHT22;447;51.332;6.778;2022-09-19T00:52:07;14.90;93.80
921;DHT22;447;51.332;6.778;2022-09-19T00:54:40;14.90;93.80
921;DHT22;447;51.332;6.778;2022-09-19T00:57:07;14.90;93.80
921;DHT22;447;51.332;6.778;2022-09-19T00:59:37;14.90;93.80
921;DHT22;447;51.332;6.778;2022-09-19T01:02:04;14.90;93.80
921;DHT22;447;51.332;6.778;2022-09-19T01:04:31;14.90;93.80
921;DHT22;447;51.332;6.778;2022-09-19T01:07:04;14.90;93.80
921;DHT22;447;51.332;6.778;2022-09-19T01:17:55;14.90;93.80
921;DHT22;447;51.332;6.778;2022-09-19T01:28:39;14.90;93.90
921;DHT22;447;51.332;6.778;2022-09-19T01:31:28;14.90;93.90
921;DHT22;447;51.332;6.778;2022-09-19T01:34:06;14.90;93.90
921;DHT22;447;51.332;6.778;2022-09-19T01:36:58;14.80;93.80
921;DHT22;447;51.332;6.778;2022-09-19T01:39:30;14.80;93.80
921;DHT22;447;51.332;6.778;2022-09-19T01:41:59;14.80;93.80
921;DHT22;447;51.332;6.778;2022-09-19T01:44:28;14.80;93.80
921;DHT22;447;51.332;6.778;2022-09-19T01:55:21;14.80;93.80
921;DHT22;447;51.332;6.778;2022-09-19T02:00:26;14.80;93.80
921;DHT22;447;51.332;6.778;2022-09-19T02:05:55;14.80;93.80
921;DHT22;447;51.332;6.778;2022-09-19T02:08:34;14.80;93.80
921;DHT22;447;51.332;6.778;2022-09-19T02:11:09;14.80;93.80
921;DHT22;447;51.332;6.778;2022-09-19T02:13:41;14.80;93.80
921;DHT22;447;51.332;6.778;2022-09-19T02:16:33;14.80;93.80
921;DHT22;447;51.332;6.778;2022-09-19T02:19:11;14.80;93.80
921;DHT22;447;51.332;6.778;2022-09-19T02:21:51;14.70;93.70
921;DHT22;447;51.332;6.778;2022-09-19T02:24:24;14.70;93.70
921;DHT22;447;51.332;6.778;2022-09-19T02:26:54;14.70;93.70
921;DHT22;447;51.332;6.778;2022-09-19T02:29:27;14.70;93.70
921;DHT22;447;51.332;6.778;2022-09-19T02:31:57;14.70;93.70
921;DHT22;447;51.332;6.778;2022-09-19T02:34:23;14.70;93.70
921;DHT22;447;51.332;6.778;2022-09-19T02:36:59;14.70;93.70
921;DHT22;447;51.332;6.778;2022-09-19T02:39:43;14.70;93.70
921;DHT22;447;51.332;6.778;2022-09-19T02:42:36;14.70;93.60
921;DHT22;447;51.332;6.778;2022-09-19T02:45:22;14.70;93.60
921;DHT22;447;51.332;6.778;2022-09-19T02:48:00;14.70;93.70
921;DHT22;447;51.332;6.778;2022-09-19T02:50:39;14.70;94.00
921;DHT22;447;51.332;6.778;2022-09-19T02:53:12;14.70;93.60
921;DHT22;447;51.332;6.778;2022-09-19T02:55:45;14.70;93.60
921;DHT22;447;51.332;6.778;2022-09-19T02:58:15;14.70;93.70
921;DHT22;447;51.332;6.778;2022-09-19T03:00:48;14.70;93.60
921;DHT22;447;51.332;6.778;2022-09-19T03:03:29;14.70;93.60
921;DHT22;447;51.332;6.778;2022-09-19T03:06:18;14.70;93.60
921;DHT22;447;51.332;6.778;2022-09-19T03:08:47;14.70;93.60
921;DHT22;447;51.332;6.778;2022-09-19T03:11:18;14.70;93.60
921;DHT22;447;51.332;6.778;2022-09-19T03:13:45;14.70;93.60
921;DHT22;447;51.332;6.778;2022-09-19T03:16:23;14.70;93.60
921;DHT22;447;51.332;6.778;2022-09-19T03:18:53;14.70;93.60
921;DHT22;447;51.332;6.778;2022-09-19T03:21:26;14.70;93.60
921;DHT22;447;51.332;6.778;2022-09-19T03:23:54;14.70;93.60
921;DHT22;447;51.332;6.778;2022-09-19T03:26:31;14.60;93.50
921;DHT22;447;51.332;6.778;2022-09-19T03:29:01;14.60;93.80
921;DHT22;447;51.332;6.778;2022-09-19T03:31:35;14.60;93.50
921;DHT22;447;51.332;6.778;2022-09-19T03:34:07;14.60;93.60
921;DHT22;447;51.332;6.778;2022-09-19T03:36:33;14.60;93.60
921;DHT22;447;51.332;6.778;2022-09-19T03:39:00;14.60;93.60
921;DHT22;447;51.332;6.778;2022-09-19T03:41:33;14.60;93.50
921;DHT22;447;51.332;6.778;2022-09-19T03:44:01;14.60;93.60
921;DHT22;447;51.332;6.778;2022-09-19T03:46:29;14.60;93.50
921;DHT22;447;51.332;6.778;2022-09-19T03:48:59;14.60;93.50
921;DHT22;447;51.332;6.778;2022-09-19T03:51:27;14.60;93.50
921;DHT22;447;51.332;6.778;2022-09-19T03:53:53;14.60;93.50
921;DHT22;447;51.332;6.778;2022-09-19T03:56:24;14.60;93.50
921;DHT22;447;51.332;6.778;2022-09-19T03:58:50;14.60;93.50
921;DHT22;447;51.332;6.778;2022-09-19T04:01:17;14.60;93.50
921;DHT22;447;51.332;6.778;2022-09-19T04:03:44;14.60;93.50
921;DHT22;447;51.332;6.778;2022-09-19T04:06:16;14.60;93.50
921;DHT22;447;51.332;6.778;2022-09-19T04:08:42;14.60;93.50
921;DHT22;447;51.332;6.778;2022-09-19T04:11:08;14.60;93.50
921;DHT22;447;51.332;6.778;2022-09-19T04:13:35;14.60;93.50
921;DHT22;447;51.332;6.778;2022-09-19T04:16:22;14.60;93.50
921;DHT22;447;51.332;6.778;2022-09-19T04:18:50;14.60;93.50
921;DHT22;447;51.332;6.778;2022-09-19T04:21:43;14.60;93.50
921;DHT22;447;51.332;6.778;2022-09-19T04:24:28;14.50;93.50
921;DHT22;447;51.332;6.778;2022-09-19T04:27:14;14.50;93.50
921;DHT22;447;51.332;6.778;2022-09-19T04:29:40;14.50;93.50
921;DHT22;447;51.332;6.778;2022-09-19T04:32:07;14.50;93.50
921;DHT22;447;51.332;6.778;2022-09-19T04:34:36;14.50;93.50
921;DHT22;447;51.332;6.778;2022-09-19T04:37:03;14.50;93.50
921;DHT22;447;51.332;6.778;2022-09-19T04:39:37;14.50;93.40
921;DHT22;447;51.332;6.778;2022-09-19T04:42:06;14.50;93.50
921;DHT22;447;51.332;6.778;2022-09-19T04:44:32;14.50;93.50
921;DHT22;447;51.332;6.778;2022-09-19T04:47:22;14.50;93.50
921;DHT22;447;51.332;6.778;2022-09-19T04:49:53;14.50;93.50
921;DHT22;447;51.332;6.778;2022-09-19T04:52:25;14.50;93.50
921;DHT22;447;51.332;6.778;2022-09-19T04:54:51;14.50;93.50
921;DHT22;447;51.332;6.778;2022-09-19T04:57:21;14.50;93.50
921;DHT22;447;51.332;6.778;2022-09-19T04:59:58;14.50;93.50
921;DHT22;447;51.332;6.778;2022-09-19T05:02:29;14.50;93.50
921;DHT22;447;51.332;6.778;2022-09-19T05:04:58;14.50;93.50
921;DHT22;447;51.332;6.778;2022-09-19T05:07:29;14.40;93.40
921;DHT22;447;51.332;6.778;2022-09-19T05:10:05;14.50;93.40
921;DHT22;447;51.332;6.778;2022-09-19T05:12:35;14.40;93.40
921;DHT22;447;51.332;6.778;2022-09-19T05:15:04;14.40;93.50
921;DHT22;447;51.332;6.778;2022-09-19T05:17:34;14.40;93.40
921;DHT22;447;51.332;6.778;2022-09-19T05:20:03;14.40;93.40
921;DHT22;447;51.332;6.778;2022-09-19T05:22:35;14.40;93.40
921;DHT22;447;51.332;6.778;2022-09-19T05:25:04;14.40;93.40
921;DHT22;447;51.332;6.778;2022-09-19T05:27:37;14.40;93.40
921;DHT22;447;51.332;6.778;2022-09-19T05:30:06;14.40;93.40
921;DHT22;447;51.332;6.778;2022-09-19T05:32:38;14.40;93.40
921;DHT22;447;51.332;6.778;2022-09-19T05:35:29;14.40;93.40
921;DHT22;447;51.332;6.778;2022-09-19T05:38:21;14.40;93.40
921;DHT22;447;51.332;6.778;2022-09-19T05:41:15;14.40;93.40
921;DHT22;447;51.332;6.778;2022-09-19T05:43:59;14.40;93.40
921;DHT22;447;51.332;6.778;2022-09-19T05:46:28;14.40;93.40
921;DHT22;447;51.332;6.778;2022-09-19T05:48:57;14.40;93.40
921;DHT22;447;51.332;6.778;2022-09-19T05:51:24;14.40;93.40
921;DHT22;447;51.332;6.778;2022-09-19T05:53:53;14.40;93.40
921;DHT22;447;51.332;6.778;2022-09-19T05:56:42;14.40;93.40
921;DHT22;447;51.332;6.778;2022-09-19T05:59:10;14.40;93.40
921;DHT22;447;51.332;6.778;2022-09-19T06:01:44;14.40;93.40
921;DHT22;447;51.332;6.778;2022-09-19T06:04:25;14.40;93.40
921;DHT22;447;51.332;6.778;2022-09-19T06:06:51;14.40;93.40
921;DHT22;447;51.332;6.778;2022-09-19T06:09:45;14.40;93.40
921;DHT22;447;51.332;6.778;2022-09-19T06:12:12;14.40;93.40
921;DHT22;447;51.332;6.778;2022-09-19T06:14:45;14.40;93.40
921;DHT22;447;51.332;6.778;2022-09-19T06:17:20;14.40;93.40
921;DHT22;447;51.332;6.778;2022-09-19T06:19:55;14.40;93.40
921;DHT22;447;51.332;6.778;2022-09-19T06:22:34;14.30;93.40
921;DHT22;447;51.332;6.778;2022-09-19T06:25:01;14.30;93.40
921;DHT22;447;51.332;6.778;2022-09-19T06:27:32;14.30;93.40
921;DHT22;447;51.332;6.778;2022-09-19T06:30:03;14.30;93.40
921;DHT22;447;51.332;6.778;2022-09-19T06:32:42;14.30;93.40
921;DHT22;447;51.332;6.778;2022-09-19T06:35:16;14.30;93.40
921;DHT22;447;51.332;6.778;2022-09-19T06:37:42;14.30;93.40
921;DHT22;447;51.332;6.778;2022-09-19T06:40:50;14.30;93.40
921;DHT22;447;51.332;6.778;2022-09-19T06:43:39;14.30;93.40
921;DHT22;447;51.332;6.778;2022-09-19T06:46:21;14.30;93.40
921;DHT22;447;51.332;6.778;2022-09-19T06:49:08;14.30;93.40
921;DHT22;447;51.332;6.778;2022-09-19T06:51:51;14.30;93.40
921;DHT22;447;51.332;6.778;2022-09-19T06:54:25;14.30;93.40
921;DHT22;447;51.332;6.778;2022-09-19T06:56:55;14.30;93.40
921;DHT22;447;51.332;6.778;2022-09-19T06:59:24;14.30;93.50
921;DHT22;447;51.332;6.778;2022-09-19T07:01:52;14.30;93.50
921;DHT22;447;51.332;6.778;2022-09-19T07:04:25;14.30;93.50
921;DHT22;447;51.332;6.778;2022-09-19T07:07:22;14.30;93.50
921;DHT22;447;51.332;6.778;2022-09-19T07:09:53;14.30;93.50
921;DHT22;447;51.332;6.778;2022-09-19T07:12:20;14.30;93.50
921;DHT22;447;51.332;6.778;2022-09-19T07:14:50;14.30;93.50
921;DHT22;447;51.332;6.778;2022-09-19T07:17:16;14.30;93.50
921;DHT22;447;51.332;6.778;2022-09-19T07:19:45;14.30;93.50
921;DHT22;447;51.332;6.778;2022-09-19T07:22:31;14.30;93.60
921;DHT22;447;51.332;6.778;2022-09-19T07:25:14;14.30;93.60
921;DHT22;447;51.332;6.778;2022-09-19T07:27:57;14.30;93.60
921;DHT22;447;51.332;6.778;2022-09-19T07:30:23;14.30;93.60
921;DHT22;447;51.332;6.778;2022-09-19T07:32:57;14.30;93.90
921;DHT22;447;51.332;6.778;2022-09-19T07:35:27;14.30;93.60
921;DHT22;447;51.332;6.778;2022-09-19T07:37:55;14.40;93.60
921;DHT22;447;51.332;6.778;2022-09-19T07:40:47;14.30;93.60
921;DHT22;447;51.332;6.778;2022-09-19T07:43:26;14.40;93.60
921;DHT22;447;51.332;6.778;2022-09-19T07:46:11;14.40;93.70
921;DHT22;447;51.332;6.778;2022-09-19T07:48:49;14.40;93.60
921;DHT22;447;51.332;6.778;2022-09-19T07:51:35;14.40;93.70
921;DHT22;447;51.332;6.778;2022-09-19T07:54:07;14.40;93.70
921;DHT22;447;51.332;6.778;2022-09-19T07:56:38;14.40;93.80
921;DHT22;447;51.332;6.778;2022-09-19T07:59:06;14.40;93.70
921;DHT22;447;51.332;6.778;2022-09-19T08:01:49;14.40;93.80
921;DHT22;447;51.332;6.778;2022-09-19T08:04:39;14.40;93.80
921;DHT22;447;51.332;6.778;2022-09-19T08:07:07;14.40;93.80
921;DHT22;447;51.332;6.778;2022-09-19T08:09:37;14.40;93.90
921;DHT22;447;51.332;6.778;2022-09-19T08:12:07;14.40;93.90
921;DHT22;447;51.332;6.778;2022-09-19T08:14:45;14.40;93.90
921;DHT22;447;51.332;6.778;2022-09-19T08:17:16;14.40;94.00
921;DHT22;447;51.332;6.778;2022-09-19T08:19:46;14.40;94.00
921;DHT22;447;51.332;6.778;2022-09-19T08:22:14;14.40;94.00
921;DHT22;447;51.332;6.778;2022-09-19T08:24:59;14.40;94.00
921;DHT22;447;51.332;6.778;2022-09-19T08:27:28;14.40;94.00
921;DHT22;447;51.332;6.778;2022-09-19T08:29:55;14.40;94.00
921;DHT22;447;51.332;6.778;2022-09-19T08:32:47;14.40;94.10
921;DHT22;447;51.332;6.778;2022-09-19T08:35:38;14.40;94.10
921;DHT22;447;51.332;6.778;2022-09-19T08:38:11;14.40;94.20
921;DHT22;447;51.332;6.778;2022-09-19T08:46:23;14.40;94.20
921;DHT22;447;51.332;6.778;2022-09-19T08:49:25;14.50;94.30
921;DHT22;447;51.332;6.778;2022-09-19T08:54:46;14.40;94.30
921;DHT22;447;51.332;6.778;2022-09-19T08:57:33;14.50;94.40
921;DHT22;447;51.332;6.778;2022-09-19T09:00:14;14.50;94.40
921;DHT22;447;51.332;6.778;2022-09-19T09:03:11;14.50;94.50
921;DHT22;447;51.332;6.778;2022-09-19T09:05:46;14.50;94.50
921;DHT22;447;51.332;6.778;2022-09-19T09:11:57;14.60;94.70
921;DHT22;447;51.332;6.778;2022-09-19T09:26:05;14.60;94.90
921;DHT22;447;51.332;6.778;2022-09-19T09:28:41;14.60;95.00
921;DHT22;447;51.332;6.778;2022-09-19T09:31:44;14.60;95.00
921;DHT22;447;51.332;6.778;2022-09-19T09:34:34;14.60;94.90
921;DHT22;447;51.332;6.778;2022-09-19T09:37:25;14.70;95.00
921;DHT22;447;51.332;6.778;2022-09-19T09:40:29;14.70;95.00
921;DHT22;447;51.332;6.778;2022-09-19T09:43:14;14.70;95.00
921;DHT22;447;51.332;6.778;2022-09-19T09:45:50;14.70;95.00
921;DHT22;447;51.332;6.778;2022-09-19T09:48:38;14.70;95.10
921;DHT22;447;51.332;6.778;2022-09-19T10:00:09;14.80;95.30
921;DHT22;447;51.332;6.778;2022-09-19T10:06:38;14.80;95.30
921;DHT22;447;51.332;6.778;2022-09-19T10:09:14;14.80;95.20
921;DHT22;447;51.332;6.778;2022-09-19T10:14:38;14.80;95.30
921;DHT22;447;51.332;6.778;2022-09-19T10:17:35;14.80;95.40
921;DHT22;447;51.332;6.778;2022-09-19T10:20:10;14.80;95.50
921;DHT22;447;51.332;6.778;2022-09-19T10:22:48;14.90;95.60
921;DHT22;447;51.332;6.778;2022-09-19T10:25:19;14.90;95.60
921;DHT22;447;51.332;6.778;2022-09-19T10:27:46;14.90;95.60
921;DHT22;447;51.332;6.778;2022-09-19T10:30:58;14.90;95.60
921;DHT22;447;51.332;6.778;2022-09-19T10:33:45;15.00;95.70
921;DHT22;447;51.332;6.778;2022-09-19T10:36:24;15.00;95.70
921;DHT22;447;51.332;6.778;2022-09-19T10:39:07;15.00;95.60
921;DHT22;447;51.332;6.778;2022-09-19T10:41:35;15.00;95.50
921;DHT22;447;51.332;6.778;2022-09-19T10:44:05;15.00;95.60
921;DHT22;447;51.332;6.778;2022-09-19T10:46:48;15.10;95.60
921;DHT22;447;51.332;6.778;2022-09-19T10:49:48;15.00;95.50
921;DHT22;447;51.332;6.778;2022-09-19T10:52:32;15.10;95.50
921;DHT22;447;51.332;6.778;2022-09-19T10:55:02;15.10;95.50
921;DHT22;447;51.332;6.778;2022-09-19T10:57:38;15.10;95.50
921;DHT22;447;51.332;6.778;2022-09-19T11:00:25;15.20;95.50
921;DHT22;447;51.332;6.778;2022-09-19T11:03:02;15.20;95.50
921;DHT22;447;51.332;6.778;2022-09-19T11:05:34;15.20;95.50
921;DHT22;447;51.332;6.778;2022-09-19T11:08:02;15.20;95.40
921;DHT22;447;51.332;6.778;2022-09-19T11:10:37;15.30;95.50
921;DHT22;447;51.332;6.778;2022-09-19T11:13:21;15.30;95.40
921;DHT22;447;51.332;6.778;2022-09-19T11:19:13;15.30;95.50
921;DHT22;447;51.332;6.778;2022-09-19T11:24:57;15.30;95.30
921;DHT22;447;51.332;6.778;2022-09-19T11:44:41;15.50;95.30
921;DHT22;447;51.332;6.778;2022-09-19T11:50:27;15.50;95.30
921;DHT22;447;51.332;6.778;2022-09-19T12:12:29;15.60;95.20
921;DHT22;447;51.332;6.778;2022-09-19T12:15:21;15.60;95.20
921;DHT22;447;51.332;6.778;2022-09-19T12:18:15;15.70;95.30
921;DHT22;447;51.332;6.778;2022-09-19T12:20:57;15.70;95.20
921;DHT22;447;51.332;6.778;2022-09-19T12:23:44;15.70;95.20
921;DHT22;447;51.332;6.778;2022-09-19T12:29:25;15.70;95.20
921;DHT22;447;51.332;6.778;2022-09-19T12:32:12;15.70;95.20
921;DHT22;447;51.332;6.778;2022-09-19T12:48:52;15.80;95.50
921;DHT22;447;51.332;6.778;2022-09-19T12:54:35;15.80;95.70
921;DHT22;447;51.332;6.778;2022-09-19T12:59:52;15.80;95.70
921;DHT22;447;51.332;6.778;2022-09-19T13:02:38;15.80;95.70
921;DHT22;447;51.332;6.778;2022-09-19T13:05:51;15.90;95.80
921;DHT22;447;51.332;6.778;2022-09-19T13:08:33;15.90;95.90
921;DHT22;447;51.332;6.778;2022-09-19T13:11:29;15.90;96.00
921;DHT22;447;51.332;6.778;2022-09-19T13:15:13;15.90;96.10
921;DHT22;447;51.332;6.778;2022-09-19T13:17:12;16.00;96.60
921;DHT22;447;51.332;6.778;2022-09-19T13:19:59;16.00;96.30
921;DHT22;447;51.332;6.778;2022-09-19T13:22:53;16.00;96.30
921;DHT22;447;51.332;6.778;2022-09-19T13:25:39;16.00;96.20
921;DHT22;447;51.332;6.778;2022-09-19T13:28:28;16.00;96.20
921;DHT22;447;51.332;6.778;2022-09-19T13:31:08;16.00;96.20
921;DHT22;447;51.332;6.778;2022-09-19T13:33:54;16.00;96.10
921;DHT22;447;51.332;6.778;2022-09-19T13:38:58;16.10;96.40
921;DHT22;447;51.332;6.778;2022-09-19T13:41:53;16.10;96.00
921;DHT22;447;51.332;6.778;2022-09-19T13:47:26;16.10;95.90
921;DHT22;447;51.332;6.778;2022-09-19T13:50:30;16.10;95.90
921;DHT22;447;51.332;6.778;2022-09-19T13:53:06;16.10;95.90
921;DHT22;447;51.332;6.778;2022-09-19T13:55:38;16.10;95.90
921;DHT22;447;51.332;6.778;2022-09-19T13:58:44;16.10;95.80
921;DHT22;447;51.332;6.778;2022-09-19T14:01:17;16.10;95.80
921;DHT22;447;51.332;6.778;2022-09-19T14:03:58;16.10;95.70
921;DHT22;447;51.332;6.778;2022-09-19T14:06:44;16.10;95.70
921;DHT22;447;51.332;6.778;2022-09-19T14:09:39;16.10;95.60
921;DHT22;447;51.332;6.778;2022-09-19T14:20:52;16.20;95.60
921;DHT22;447;51.332;6.778;2022-09-19T14:23:32;16.20;95.60
921;DHT22;447;51.332;6.778;2022-09-19T14:37:44;16.20;95.30
921;DHT22;447;51.332;6.778;2022-09-19T14:52:01;16.30;95.20
921;DHT22;447;51.332;6.778;2022-09-19T14:55:03;16.30;95.20
921;DHT22;447;51.332;6.778;2022-09-19T14:57:45;16.30;95.10
921;DHT22;447;51.332;6.778;2022-09-19T15:00:23;16.30;95.00
921;DHT22;447;51.332;6.778;2022-09-19T15:02:51;16.40;95.00
921;DHT22;447;51.332;6.778;2022-09-19T15:05:46;16.30;94.90
921;DHT22;447;51.332;6.778;2022-09-19T15:08:26;16.40;94.80
921;DHT22;447;51.332;6.778;2022-09-19T15:11:04;16.40;94.70
921;DHT22;447;51.332;6.778;2022-09-19T15:13:31;16.40;94.60
921;DHT22;447;51.332;6.778;2022-09-19T15:16:03;16.40;94.80
921;DHT22;447;51.332;6.778;2022-09-19T15:18:39;16.40;94.40
921;DHT22;447;51.332;6.778;2022-09-19T15:21:14;16.40;94.30
921;DHT22;447;51.332;6.778;2022-09-19T15:23:42;16.40;94.20
921;DHT22;447;51.332;6.778;2022-09-19T15:26:15;16.40;94.10
921;DHT22;447;51.332;6.778;2022-09-19T15:28:47;16.40;94.00
921;DHT22;447;51.332;6.778;2022-09-19T15:31:21;16.50;94.00
921;DHT22;447;51.332;6.778;2022-09-19T15:34:03;16.50;94.00
921;DHT22;447;51.332;6.778;2022-09-19T15:36:34;16.50;93.90
921;DHT22;447;51.332;6.778;2022-09-19T15:39:04;16.50;93.90
921;DHT22;447;51.332;6.778;2022-09-19T15:41:33;16.50;93.80
921;DHT22;447;51.332;6.778;2022-09-19T15:44:01;16.50;93.80
921;DHT22;447;51.332;6.778;2022-09-19T15:46:39;16.50;93.70
921;DHT22;447;51.332;6.778;2022-09-19T15:51:56;16.50;93.70
921;DHT22;447;51.332;6.778;2022-09-19T15:54:25;16.50;93.70
921;DHT22;447;51.332;6.778;2022-09-19T15:57:16;16.50;93.70
921;DHT22;447;51.332;6.778;2022-09-19T16:00:00;16.50;93.60
921;DHT22;447;51.332;6.778;2022-09-19T16:02:47;16.40;93.60
921;DHT22;447;51.332;6.778;2022-09-19T16:07:44;16.50;93.60
921;DHT22;447;51.332;6.778;2022-09-19T16:10:34;16.40;93.60
921;DHT22;447;51.332;6.778;2022-09-19T16:13:01;16.50;93.50
921;DHT22;447;51.332;6.778;2022-09-19T16:15:30;16.40;93.50
921;DHT22;447;51.332;6.778;2022-09-19T16:23:03;16.40;93.40
921;DHT22;447;51.332;6.778;2022-09-19T16:28:14;16.40;93.40
921;DHT22;447;51.332;6.778;2022-09-19T16:30:54;16.40;93.40
921;DHT22;447;51.332;6.778;2022-09-19T16:33:23;16.40;93.30
921;DHT22;447;51.332;6.778;2022-09-19T16:35:53;16.40;93.30
921;DHT22;447;51.332;6.778;2022-09-19T16:38:25;16.40;93.30
921;DHT22;447;51.332;6.778;2022-09-19T16:40:58;16.40;93.30
921;DHT22;447;51.332;6.778;2022-09-19T16:46:19;16.40;93.30
921;DHT22;447;51.332;6.778;2022-09-19T16:48:48;16.40;93.30
921;DHT22;447;51.332;6.778;2022-09-19T16:51:16;16.40;93.40
921;DHT22;447;51.332;6.778;2022-09-19T16:53:44;16.40;93.40
921;DHT22;447;51.332;6.778;2022-09-19T16:56:19;16.40;93.40
921;DHT22;447;51.332;6.778;2022-09-19T16:58:46;16.40;93.40
921;DHT22;447;51.332;6.778;2022-09-19T17:01:12;16.40;93.40
921;DHT22;447;51.332;6.778;2022-09-19T17:03:39;16.40;93.30
921;DHT22;447;51.332;6.778;2022-09-19T17:06:08;16.40;93.30
921;DHT22;447;51.332;6.778;2022-09-19T17:08:35;16.40;93.30
921;DHT22;447;51.332;6.778;2022-09-19T17:11:04;16.40;93.30
921;DHT22;447;51.332;6.778;2022-09-19T17:13:30;16.40;93.30
921;DHT22;447;51.332;6.778;2022-09-19T17:16:04;16.40;93.30
921;DHT22;447;51.332;6.778;2022-09-19T17:18:35;16.40;93.30
921;DHT22;447;51.332;6.778;2022-09-19T17:21:02;16.40;93.40
921;DHT22;447;51.332;6.778;2022-09-19T17:23:29;16.40;93.20
921;DHT22;447;51.332;6.778;2022-09-19T17:26:03;16.40;93.10
921;DHT22;447;51.332;6.778;2022-09-19T17:28:29;16.40;93.10
921;DHT22;447;51.332;6.778;2022-09-19T17:30:57;16.40;93.10
921;DHT22;447;51.332;6.778;2022-09-19T17:33:27;16.40;93.10
921;DHT22;447;51.332;6.778;2022-09-19T17:35:53;16.40;93.10
921;DHT22;447;51.332;6.778;2022-09-19T17:38:26;16.40;93.10
921;DHT22;447;51.332;6.778;2022-09-19T17:40:53;16.40;93.10
921;DHT22;447;51.332;6.778;2022-09-19T17:43:20;16.40;93.10
921;DHT22;447;51.332;6.778;2022-09-19T17:45:55;16.40;93.10
921;DHT22;447;51.332;6.778;2022-09-19T17:48:30;16.40;93.10
921;DHT22;447;51.332;6.778;2022-09-19T17:51:19;16.40;93.10
921;DHT22;447;51.332;6.778;2022-09-19T17:53:49;16.40;93.10
921;DHT22;447;51.332;6.778;2022-09-19T17:56:17;16.40;93.10
921;DHT22;447;51.332;6.778;2022-09-19T17:58:44;16.40;93.20
921;DHT22;447;51.332;6.778;2022-09-19T18:01:19;16.40;93.20
921;DHT22;447;51.332;6.778;2022-09-19T18:04:05;16.40;93.20
921;DHT22;447;51.332;6.778;2022-09-19T18:06:31;16.30;93.20
921;DHT22;447;51.332;6.778;2022-09-19T18:08:58;16.40;93.20
921;DHT22;447;51.332;6.778;2022-09-19T18:11:24;16.30;93.20
921;DHT22;447;51.332;6.778;2022-09-19T18:13:51;16.30;93.20
921;DHT22;447;51.332;6.778;2022-09-19T18:16:22;16.30;93.20
921;DHT22;447;51.332;6.778;2022-09-19T18:18:50;16.30;93.20
921;DHT22;447;51.332;6.778;2022-09-19T18:21:16;16.30;93.20
921;DHT22;447;51.332;6.778;2022-09-19T18:23:42;16.30;93.10
921;DHT22;447;51.332;6.778;2022-09-19T18:26:15;16.30;93.10
921;DHT22;447;51.332;6.778;2022-09-19T18:28:44;16.30;93.00
921;DHT22;447;51.332;6.778;2022-09-19T18:31:14;16.30;93.00
921;DHT22;447;51.332;6.778;2022-09-19T18:33:42;16.30;93.00
921;DHT22;447;51.332;6.778;2022-09-19T18:36:15;16.30;93.00
921;DHT22;447;51.332;6.778;2022-09-19T18:39:12;16.30;93.10
921;DHT22;447;51.332;6.778;2022-09-19T18:41:40;16.30;93.00
921;DHT22;447;51.332;6.778;2022-09-19T18:44:11;16.30;93.40
921;DHT22;447;51.332;6.778;2022-09-19T18:46:40;16.30;93.10
921;DHT22;447;51.332;6.778;2022-09-19T18:49:06;16.30;93.10
921;DHT22;447;51.332;6.778;2022-09-19T18:51:32;16.30;93.10
921;DHT22;447;51.332;6.778;2022-09-19T18:53:58;16.30;93.10
921;DHT22;447;51.332;6.778;2022-09-19T18:56:25;16.30;93.10
921;DHT22;447;51.332;6.778;2022-09-19T18:58:53;16.30;93.10
921;DHT22;447;51.332;6.778;2022-09-19T19:01:22;16.30;93.10
921;DHT22;447;51.332;6.778;2022-09-19T19:03:58;16.20;93.00
921;DHT22;447;51.332;6.778;2022-09-19T19:06:57;16.30;93.10
921;DHT22;447;51.332;6.778;2022-09-19T19:09:23;16.30;93.10
921;DHT22;447;51.332;6.778;2022-09-19T19:11:50;16.30;93.40
921;DHT22;447;51.332;6.778;2022-09-19T19:14:18;16.30;93.10
921;DHT22;447;51.332;6.778;2022-09-19T19:16:44;16.30;93.10
921;DHT22;447;51.332;6.778;2022-09-19T19:19:13;16.30;93.10
921;DHT22;447;51.332;6.778;2022-09-19T19:21:42;16.30;93.10
921;DHT22;447;51.332;6.778;2022-09-19T19:24:15;16.30;93.10
921;DHT22;447;51.332;6.778;2022-09-19T19:26:41;16.30;93.10
921;DHT22;447;51.332;6.778;2022-09-19T19:29:07;16.30;93.10
921;DHT22;447;51.332;6.778;2022-09-19T19:32:11;16.30;93.10
921;DHT22;447;51.332;6.778;2022-09-19T19:34:40;16.20;93.10
921;DHT22;447;51.332;6.778;2022-09-19T19:37:06;16.20;93.10
921;DHT22;447;51.332;6.778;2022-09-19T19:39:35;16.20;93.10
921;DHT22;447;51.332;6.778;2022-09-19T19:42:01;16.20;93.10
921;DHT22;447;51.332;6.778;2022-09-19T19:44:30;16.20;93.10
921;DHT22;447;51.332;6.778;2022-09-19T19:46:56;16.20;93.10
921;DHT22;447;51.332;6.778;2022-09-19T19:49:24;16.20;93.10
921;DHT22;447;51.332;6.778;2022-09-19T19:51:50;16.20;93.10
921;DHT22;447;51.332;6.778;2022-09-19T19:54:16;16.20;93.10
921;DHT22;447;51.332;6.778;2022-09-19T19:56:42;16.20;93.10
921;DHT22;447;51.332;6.778;2022-09-19T19:59:13;16.20;93.50
921;DHT22;447;51.332;6.778;2022-09-19T20:01:40;16.20;93.10
921;DHT22;447;51.332;6.778;2022-09-19T20:04:07;16.20;93.10
921;DHT22;447;51.332;6.778;2022-09-19T20:06:50;16.20;93.10
921;DHT22;447;51.332;6.778;2022-09-19T20:09:19;16.20;93.10
921;DHT22;447;51.332;6.778;2022-09-19T20:11:45;16.20;93.10
921;DHT22;447;51.332;6.778;2022-09-19T20:14:16;16.20;93.20
921;DHT22;447;51.332;6.778;2022-09-19T20:16:50;16.20;93.20
921;DHT22;447;51.332;6.778;2022-09-19T20:19:18;16.20;93.10
921;DHT22;447;51.332;6.778;2022-09-19T20:21:48;16.20;93.20
921;DHT22;447;51.332;6.778;2022-09-19T20:24:18;16.10;93.10
921;DHT22;447;51.332;6.778;2022-09-19T20:26:52;16.20;93.20
921;DHT22;447;51.332;6.778;2022-09-19T20:29:22;16.10;93.10
921;DHT22;447;51.332;6.778;2022-09-19T20:31:50;16.20;93.20
921;DHT22;447;51.332;6.778;2022-09-19T20:34:17;16.20;93.20
921;DHT22;447;51.332;6.778;2022-09-19T20:36:48;16.10;93.20
921;DHT22;447;51.332;6.778;2022-09-19T20:39:18;16.10;93.20
921;DHT22;447;51.332;6.778;2022-09-19T20:41:44;16.10;93.20
921;DHT22;447;51.332;6.778;2022-09-19T20:44:11;16.10;93.20